createdAt,value
2018-04-15T00:00:22.993Z,13.00
2018-04-15T00:02:51.092Z,12.80
2018-04-15T00:05:19.353Z,12.70
2018-04-15T00:07:46.861Z,12.70
2018-04-15T00:10:14.337Z,12.70
2018-04-15T00:12:41.836Z,12.70
2018-04-15T00:15:09.308Z,12.60
2018-04-15T00:17:36.845Z,12.50
2018-04-15T00:20:04.333Z,12.40
2018-04-15T00:22:31.854Z,12.40
2018-04-15T00:24:59.335Z,12.50
2018-04-15T00:27:26.813Z,12.60
2018-04-15T00:29:55.085Z,12.60
2018-04-15T00:32:22.562Z,12.50
2018-04-15T00:34:50.907Z,12.60
2018-04-15T00:37:18.412Z,12.60
2018-04-15T00:39:45.913Z,12.60
2018-04-15T00:42:14.161Z,12.50
2018-04-15T00:44:42.421Z,12.50
2018-04-15T00:47:09.892Z,12.50
2018-04-15T00:49:37.368Z,12.40
2018-04-15T00:52:04.868Z,12.20
2018-04-15T00:54:32.345Z,12.30
2018-04-15T00:56:59.854Z,12.40
2018-04-15T00:59:27.369Z,12.50
2018-04-15T01:01:54.864Z,12.40
2018-04-15T01:04:22.338Z,12.30
2018-04-15T01:06:49.832Z,12.30
2018-04-15T01:09:17.305Z,12.40
2018-04-15T01:11:44.816Z,12.40
2018-04-15T01:14:12.284Z,12.40
2018-04-15T01:16:39.753Z,12.40
2018-04-15T01:19:07.258Z,12.30
2018-04-15T01:21:35.498Z,12.20
2018-04-15T01:24:02.974Z,12.20
2018-04-15T01:26:30.473Z,12.10
2018-04-15T01:28:57.982Z,12.20
2018-04-15T01:31:25.455Z,12.20
2018-04-15T01:33:53.728Z,12.10
2018-04-15T01:36:21.239Z,12.00
2018-04-15T01:38:48.739Z,12.00
2018-04-15T01:41:16.253Z,11.90
2018-04-15T01:43:43.738Z,11.90
2018-04-15T01:46:11.237Z,11.90
2018-04-15T01:48:38.713Z,11.90
2018-04-15T01:51:06.216Z,11.90
2018-04-15T01:53:33.690Z,11.90
2018-04-15T01:56:01.180Z,11.90
2018-04-15T01:58:28.673Z,11.80
2018-04-15T02:00:56.169Z,11.80
2018-04-15T02:03:23.640Z,11.80
2018-04-15T02:05:51.916Z,11.80
2018-04-15T02:08:20.155Z,11.80
2018-04-15T02:10:47.632Z,11.80
2018-04-15T02:13:15.124Z,11.80
2018-04-15T02:15:42.624Z,11.80
2018-04-15T02:18:10.114Z,11.80
2018-04-15T02:20:37.594Z,11.80
2018-04-15T02:23:05.098Z,11.80
2018-04-15T02:25:32.569Z,11.90
2018-04-15T02:28:00.071Z,11.90
2018-04-15T02:30:27.590Z,11.80
2018-04-15T02:32:55.059Z,11.80
2018-04-15T02:35:23.307Z,11.80
2018-04-15T02:37:50.805Z,11.80
2018-04-15T02:40:19.061Z,11.90
2018-04-15T02:42:46.564Z,11.80
2018-04-15T02:45:14.039Z,11.90
2018-04-15T02:47:41.538Z,11.90
2018-04-15T02:50:09.032Z,11.90
2018-04-15T02:52:36.539Z,11.80
2018-04-15T02:55:04.011Z,11.90
2018-04-15T02:57:31.497Z,11.80
2018-04-15T02:59:59.763Z,11.70
2018-04-15T03:02:28.062Z,11.70
2018-04-15T03:04:55.537Z,11.70
2018-04-15T03:07:23.040Z,11.70
2018-04-15T03:09:50.513Z,11.70
2018-04-15T03:12:18.780Z,11.70
2018-04-15T03:14:46.278Z,11.70
2018-04-15T03:17:13.752Z,11.70
2018-04-15T03:19:41.247Z,11.70
2018-04-15T03:22:08.721Z,11.70
2018-04-15T03:24:36.996Z,11.70
2018-04-15T03:27:05.235Z,11.70
2018-04-15T03:29:32.708Z,11.70
2018-04-15T03:32:00.205Z,11.70
2018-04-15T03:34:28.468Z,11.70
2018-04-15T03:36:56.741Z,11.70
2018-04-15T03:39:24.211Z,11.70
2018-04-15T03:41:52.448Z,11.70
2018-04-15T03:44:19.947Z,11.60
2018-04-15T03:46:48.190Z,11.70
2018-04-15T03:49:15.685Z,11.60
2018-04-15T03:51:43.946Z,11.70
2018-04-15T03:54:12.212Z,11.80
2018-04-15T03:56:39.681Z,11.70
2018-04-15T03:59:07.949Z,11.70
2018-04-15T04:01:35.422Z,11.70
2018-04-15T04:04:03.698Z,11.70
2018-04-15T04:06:31.937Z,11.70
2018-04-15T04:08:59.430Z,11.70
2018-04-15T04:11:27.665Z,11.60
2018-04-15T04:13:55.172Z,11.60
2018-04-15T04:16:23.418Z,11.50
2018-04-15T04:19:02.741Z,11.50
2018-04-15T04:21:42.061Z,11.40
2018-04-15T04:24:21.300Z,11.50
2018-04-15T04:26:48.809Z,11.60
2018-04-15T04:29:17.087Z,11.50
2018-04-15T04:31:45.346Z,11.60
2018-04-15T04:34:12.820Z,11.50
2018-04-15T04:36:41.089Z,11.70
2018-04-15T04:39:09.336Z,11.60
2018-04-15T04:41:36.831Z,11.60
2018-04-15T04:44:05.098Z,11.30
2018-04-15T04:46:33.342Z,11.40
2018-04-15T04:49:00.842Z,11.40
2018-04-15T04:51:29.113Z,11.40
2018-04-15T04:53:57.345Z,11.30
2018-04-15T04:56:24.845Z,11.30
2018-04-15T04:58:53.121Z,11.30
2018-04-15T05:01:21.365Z,11.40
2018-04-15T05:03:48.862Z,11.40
2018-04-15T05:06:17.102Z,11.30
2018-04-15T05:08:44.604Z,11.20
2018-04-15T05:11:12.864Z,11.20
2018-04-15T05:13:41.108Z,11.30
2018-04-15T05:16:08.600Z,11.30
2018-04-15T05:18:36.844Z,11.20
2018-04-15T05:21:04.337Z,11.20
2018-04-15T05:23:32.581Z,11.40
2018-04-15T05:26:00.076Z,11.40
2018-04-15T05:28:28.321Z,11.30
2018-04-15T05:30:55.815Z,11.30
2018-04-15T05:33:24.055Z,11.20
2018-04-15T05:35:51.553Z,11.20
2018-04-15T05:38:19.788Z,11.20
2018-04-15T05:40:47.264Z,11.20
2018-04-15T05:43:14.764Z,11.20
2018-04-15T05:45:42.251Z,11.20
2018-04-15T05:48:09.752Z,11.30
2018-04-15T05:50:37.981Z,11.50
2018-04-15T05:53:05.477Z,11.50
2018-04-15T05:55:33.713Z,11.50
2018-04-15T05:58:01.212Z,11.50
2018-04-15T06:00:32.480Z,11.30
2018-04-15T06:03:00.261Z,11.30
2018-04-15T06:05:27.747Z,11.30
2018-04-15T06:07:55.245Z,11.40
2018-04-15T06:10:23.518Z,11.40
2018-04-15T06:12:51.760Z,11.40
2018-04-15T06:15:20.090Z,11.40
2018-04-15T06:17:48.353Z,11.60
2018-04-15T06:20:16.621Z,11.60
2018-04-15T06:22:44.893Z,11.80
2018-04-15T06:25:12.395Z,11.80
2018-04-15T06:27:39.900Z,12.00
2018-04-15T06:30:07.467Z,12.20
2018-04-15T06:32:34.995Z,12.20
2018-04-15T06:35:02.468Z,12.30
2018-04-15T06:37:29.952Z,12.30
2018-04-15T06:40:00.385Z,12.40
2018-04-15T06:42:29.415Z,12.40
2018-04-15T06:45:00.697Z,12.50
2018-04-15T06:50:00.632Z,12.50
2018-04-15T06:52:28.110Z,12.60
2018-04-15T06:54:56.433Z,12.70
2018-04-15T06:57:23.943Z,12.60
2018-04-15T06:59:51.420Z,12.80
2018-04-15T07:02:18.934Z,13.10
2018-04-15T07:04:47.188Z,13.10
2018-04-15T07:07:14.719Z,13.10
2018-04-15T07:09:42.193Z,13.10
2018-04-15T07:12:09.704Z,13.20
2018-04-15T07:14:37.218Z,13.20
2018-04-15T07:17:04.713Z,13.40
2018-04-15T07:19:32.222Z,13.50
2018-04-15T07:21:59.738Z,13.70
2018-04-15T07:24:27.235Z,13.80
2018-04-15T07:26:54.769Z,14.00
2018-04-15T07:29:22.238Z,14.00
2018-04-15T07:31:50.506Z,14.20
2018-04-15T07:34:18.024Z,14.20
2018-04-15T07:36:45.555Z,14.30
2018-04-15T07:39:13.824Z,14.70
2018-04-15T07:41:41.305Z,14.70
2018-04-15T07:44:08.809Z,14.80
2018-04-15T07:46:36.286Z,15.00
2018-04-15T07:49:03.804Z,15.20
2018-04-15T07:51:31.281Z,15.30
2018-04-15T07:53:58.762Z,15.40
2018-04-15T07:56:26.261Z,15.50
2018-04-15T07:58:53.763Z,15.50
2018-04-15T08:01:21.233Z,15.60
2018-04-15T08:03:48.743Z,15.70
2018-04-15T08:06:16.261Z,15.80
2018-04-15T08:08:43.736Z,15.80
2018-04-15T08:11:11.247Z,15.90
2018-04-15T08:13:38.740Z,15.80
2018-04-15T08:16:07.005Z,15.90
2018-04-15T08:18:34.518Z,15.90
2018-04-15T08:21:02.089Z,15.90
2018-04-15T08:23:29.569Z,16.00
2018-04-15T08:25:57.047Z,16.00
2018-04-15T08:28:24.565Z,15.90
2018-04-15T08:30:52.042Z,16.00
2018-04-15T08:33:19.556Z,16.00
2018-04-15T08:35:47.033Z,16.10
2018-04-15T08:38:14.524Z,16.10
2018-04-15T08:40:42.051Z,16.10
2018-04-15T08:43:10.313Z,16.00
2018-04-15T08:45:37.792Z,16.00
2018-04-15T08:48:05.291Z,16.00
2018-04-15T08:50:32.805Z,15.80
2018-04-15T08:53:00.281Z,15.90
2018-04-15T08:55:27.773Z,16.00
2018-04-15T08:57:56.021Z,16.30
2018-04-15T09:00:23.534Z,16.30
2018-04-15T09:02:51.835Z,16.40
2018-04-15T09:05:20.106Z,16.40
2018-04-15T09:07:47.675Z,16.50
2018-04-15T09:10:15.168Z,16.50
2018-04-15T09:12:43.447Z,16.70
2018-04-15T09:15:11.731Z,16.60
2018-04-15T09:17:39.228Z,16.60
2018-04-15T09:20:06.855Z,16.50
2018-04-15T09:22:34.342Z,16.40
2018-04-15T09:25:01.821Z,16.50
2018-04-15T09:27:30.077Z,16.70
2018-04-15T09:29:57.549Z,16.70
2018-04-15T09:32:25.041Z,16.60
2018-04-15T09:34:52.531Z,16.50
2018-04-15T09:37:20.809Z,16.40
2018-04-15T09:39:49.050Z,16.40
2018-04-15T09:42:16.556Z,16.40
2018-04-15T09:44:44.133Z,16.70
2018-04-15T09:47:11.654Z,16.70
2018-04-15T09:49:39.137Z,16.90
2018-04-15T09:52:06.634Z,17.10
2018-04-15T09:54:34.156Z,17.10
2018-04-15T09:57:01.652Z,17.10
2018-04-15T09:59:29.159Z,17.20
2018-04-15T10:01:57.400Z,17.40
2018-04-15T10:04:24.912Z,17.40
2018-04-15T10:06:52.385Z,17.40
2018-04-15T10:09:20.033Z,17.30
2018-04-15T10:11:47.521Z,17.20
2018-04-15T10:14:15.019Z,17.30
2018-04-15T10:16:43.455Z,17.00
2018-04-15T10:19:11.492Z,17.00
2018-04-15T10:21:39.744Z,17.00
2018-04-15T10:24:07.265Z,16.90
2018-04-15T10:26:35.565Z,17.00
2018-04-15T10:29:03.100Z,17.20
2018-04-15T10:31:31.352Z,17.20
2018-04-15T10:33:58.825Z,17.20
2018-04-15T10:36:26.317Z,17.30
2018-04-15T10:38:53.799Z,17.30
2018-04-15T10:41:22.067Z,17.50
2018-04-15T10:43:49.553Z,17.50
2018-04-15T10:46:17.822Z,17.70
2018-04-15T10:48:45.297Z,17.70
2018-04-15T10:51:12.796Z,17.80
2018-04-15T10:53:41.045Z,18.00
2018-04-15T10:56:08.555Z,18.00
2018-04-15T10:58:36.799Z,17.80
2018-04-15T11:01:04.301Z,17.80
2018-04-15T11:03:31.777Z,17.80
2018-04-15T11:06:00.400Z,17.80
2018-04-15T11:08:27.892Z,17.80
2018-04-15T11:10:55.393Z,18.00
2018-04-15T11:13:22.893Z,18.20
2018-04-15T11:15:51.145Z,18.20
2018-04-15T11:18:18.647Z,18.20
2018-04-15T11:20:46.117Z,18.30
2018-04-15T11:23:14.389Z,18.60
2018-04-15T11:25:41.860Z,18.60
2018-04-15T11:28:09.351Z,18.70
2018-04-15T11:30:37.595Z,18.90
2018-04-15T11:33:05.509Z,18.80
2018-04-15T11:35:32.984Z,18.90
2018-04-15T11:38:01.251Z,19.00
2018-04-15T11:40:28.732Z,19.00
2018-04-15T11:42:56.225Z,19.10
2018-04-15T11:45:24.486Z,18.90
2018-04-15T11:47:51.964Z,18.90
2018-04-15T11:50:19.463Z,18.80
2018-04-15T11:52:46.944Z,18.80
2018-04-15T11:55:14.439Z,18.70
2018-04-15T11:57:41.912Z,18.60
2018-04-15T12:00:09.412Z,18.50
2018-04-15T12:02:36.892Z,18.50
2018-04-15T12:05:05.161Z,18.60
2018-04-15T12:07:32.638Z,18.50
2018-04-15T12:10:00.194Z,18.50
2018-04-15T12:12:27.679Z,18.40
2018-04-15T12:14:55.176Z,18.50
2018-04-15T12:17:23.428Z,18.80
2018-04-15T12:19:50.913Z,18.80
2018-04-15T12:22:18.407Z,18.70
2018-04-15T12:24:45.935Z,18.70
2018-04-15T12:27:13.442Z,18.60
2018-04-15T12:29:41.684Z,18.90
2018-04-15T12:32:09.223Z,18.90
2018-04-15T12:34:36.760Z,19.00
2018-04-15T12:37:04.254Z,19.10
2018-04-15T12:39:31.733Z,19.10
2018-04-15T12:41:59.233Z,19.00
2018-04-15T12:44:26.727Z,18.90
2018-04-15T12:46:54.228Z,18.90
2018-04-15T12:49:22.464Z,19.00
2018-04-15T12:51:49.946Z,18.90
2018-04-15T12:54:17.458Z,18.80
2018-04-15T12:56:45.707Z,18.80
2018-04-15T12:59:13.222Z,18.80
2018-04-15T13:01:41.454Z,18.60
2018-04-15T13:04:08.969Z,18.60
2018-04-15T13:06:37.214Z,18.60
2018-04-15T13:09:05.582Z,18.60
2018-04-15T13:11:33.053Z,18.40
2018-04-15T13:14:00.550Z,18.40
2018-04-15T13:16:28.040Z,18.40
2018-04-15T13:18:55.553Z,18.50
2018-04-15T13:21:23.788Z,18.60
2018-04-15T13:23:51.278Z,18.50
2018-04-15T13:26:18.790Z,18.60
2018-04-15T13:28:46.393Z,18.70
2018-04-15T13:31:13.905Z,18.80
2018-04-15T13:33:42.156Z,18.60
2018-04-15T13:36:09.648Z,18.60
2018-04-15T13:38:37.116Z,18.60
2018-04-15T13:41:04.616Z,18.50
2018-04-15T13:43:32.856Z,18.40
2018-04-15T13:46:00.348Z,18.40
2018-04-15T13:48:27.840Z,18.30
2018-04-15T13:50:56.108Z,18.20
2018-04-15T13:53:23.584Z,18.20
2018-04-15T13:55:51.057Z,18.20
2018-04-15T13:58:18.577Z,18.10
2018-04-15T14:00:46.065Z,18.00
2018-04-15T14:03:13.563Z,18.00
2018-04-15T14:05:41.084Z,18.00
2018-04-15T14:08:09.328Z,17.90
2018-04-15T14:10:36.856Z,17.90
2018-04-15T14:13:04.354Z,17.90
2018-04-15T14:15:31.838Z,17.80
2018-04-15T14:17:59.337Z,17.70
2018-04-15T14:20:26.813Z,17.70
2018-04-15T14:22:54.337Z,17.70
2018-04-15T14:25:21.893Z,17.70
2018-04-15T14:27:50.070Z,17.60
2018-04-15T14:30:17.556Z,17.50
2018-04-15T14:32:45.033Z,17.50
2018-04-15T14:35:12.517Z,17.40
2018-04-15T14:37:40.014Z,17.30
2018-04-15T14:40:08.346Z,17.10
2018-04-15T14:42:35.886Z,17.10
2018-04-15T14:45:03.385Z,17.20
2018-04-15T14:47:30.928Z,17.00
2018-04-15T14:49:58.493Z,16.80
2018-04-15T14:52:25.917Z,16.90
2018-04-15T14:54:54.210Z,16.70
2018-04-15T14:57:21.718Z,16.70
2018-04-15T14:59:49.965Z,16.70
2018-04-15T15:02:17.458Z,16.70
2018-04-15T15:04:44.936Z,16.70
2018-04-15T15:07:13.457Z,16.70
2018-04-15T15:09:41.076Z,16.70
2018-04-15T15:12:08.560Z,16.70
2018-04-15T15:14:36.074Z,16.70
2018-04-15T15:17:03.545Z,16.70
2018-04-15T15:19:31.148Z,16.90
2018-04-15T15:21:58.544Z,17.00
2018-04-15T15:24:26.041Z,17.00
2018-04-15T15:26:54.296Z,17.30
2018-04-15T15:29:21.795Z,17.30
2018-04-15T15:31:50.047Z,17.40
2018-04-15T15:34:17.545Z,17.40
2018-04-15T15:36:45.818Z,17.40
2018-04-15T15:39:13.301Z,17.50
2018-04-15T15:41:40.793Z,17.60
2018-04-15T15:44:08.269Z,17.70
2018-04-15T15:46:35.774Z,17.80
2018-04-15T15:49:03.249Z,17.80
2018-04-15T15:51:30.781Z,17.90
2018-04-15T15:53:58.260Z,17.90
2018-04-15T15:56:25.772Z,17.90
2018-04-15T15:58:53.297Z,17.80
2018-04-15T16:01:20.783Z,17.70
2018-04-15T16:03:48.279Z,17.80
2018-04-15T16:06:15.768Z,17.80
2018-04-15T16:08:43.263Z,17.80
2018-04-15T16:11:11.499Z,17.80
2018-04-15T16:13:39.016Z,17.70
2018-04-15T16:16:06.480Z,17.70
2018-04-15T16:18:34.731Z,17.60
2018-04-15T16:21:02.239Z,17.50
2018-04-15T16:23:30.498Z,17.40
2018-04-15T16:25:57.991Z,17.40
2018-04-15T16:28:25.479Z,17.50
2018-04-15T16:30:53.733Z,17.50
2018-04-15T16:33:21.253Z,17.40
2018-04-15T16:35:48.756Z,17.40
2018-04-15T16:38:16.274Z,17.40
2018-04-15T16:40:43.756Z,17.30
2018-04-15T16:43:12.030Z,17.30
2018-04-15T16:45:40.278Z,17.20
2018-04-15T16:48:08.095Z,17.20
2018-04-15T16:50:35.572Z,17.20
2018-04-15T16:53:03.822Z,17.30
2018-04-15T16:55:31.317Z,17.30
2018-04-15T16:57:58.835Z,17.30
2018-04-15T17:00:27.115Z,17.10
2018-04-15T17:02:54.599Z,17.10
2018-04-15T17:05:22.107Z,17.10
2018-04-15T17:07:49.630Z,17.20
2018-04-15T17:10:17.123Z,17.10
2018-04-15T17:12:44.634Z,17.00
2018-04-15T17:15:12.129Z,17.10
2018-04-15T17:17:40.388Z,17.00
2018-04-15T17:20:07.920Z,17.00
2018-04-15T17:22:35.452Z,16.90
2018-04-15T18:41:00.417Z,16.80
2018-04-15T18:43:27.901Z,15.00
2018-04-15T18:45:55.405Z,14.90
2018-04-15T18:48:23.712Z,15.00
2018-04-15T18:50:51.199Z,15.00
2018-04-15T18:53:18.692Z,14.90
2018-04-15T18:55:46.183Z,14.90
2018-04-15T18:58:13.681Z,14.90
2018-04-15T19:00:41.927Z,14.90
2018-04-15T19:03:15.579Z,14.80
2018-04-15T19:05:43.829Z,14.60
2018-04-15T19:08:11.313Z,14.50
2018-04-15T19:10:38.813Z,14.50
2018-04-15T19:13:07.073Z,14.30
2018-04-15T19:15:34.662Z,14.30
2018-04-15T19:18:02.920Z,14.20
2018-04-15T19:20:30.458Z,14.20
2018-04-15T19:22:57.971Z,14.20
2018-04-15T19:25:25.501Z,14.20
2018-04-15T19:27:53.005Z,14.10
2018-04-15T19:30:20.512Z,14.10
2018-04-15T19:32:48.061Z,14.10
2018-04-15T19:35:15.565Z,14.10
2018-04-15T19:37:43.805Z,14.10
2018-04-15T19:40:11.310Z,14.10
2018-04-15T19:42:38.793Z,14.10
2018-04-15T19:45:07.075Z,14.00
2018-04-15T19:47:35.400Z,14.00
2018-04-15T19:50:02.882Z,13.90
2018-04-15T19:52:30.419Z,13.90
2018-04-15T19:54:59.553Z,13.90
2018-04-15T19:57:27.060Z,13.90
2018-04-15T19:59:54.593Z,13.80
2018-04-15T20:02:22.091Z,13.80
2018-04-15T20:04:49.605Z,13.80
2018-04-15T20:07:17.940Z,13.80
2018-04-15T20:09:45.440Z,13.70
2018-04-15T20:12:12.955Z,13.80
2018-04-15T20:14:41.251Z,13.70
2018-04-15T20:17:08.741Z,13.70
2018-04-15T20:19:36.340Z,13.70
2018-04-15T20:22:03.852Z,13.70
2018-04-15T20:24:31.373Z,13.60
2018-04-15T20:26:58.855Z,13.60
2018-04-15T20:29:26.361Z,13.60
2018-04-15T20:31:54.600Z,13.40
2018-04-15T20:34:22.110Z,13.30
2018-04-15T20:36:49.591Z,13.20
2018-04-15T20:39:17.089Z,13.10
2018-04-15T20:41:44.610Z,13.00
2018-04-15T20:44:12.131Z,13.00
2018-04-15T20:46:39.623Z,13.00
2018-04-15T20:49:07.104Z,13.10
2018-04-15T20:51:34.620Z,13.00
2018-04-15T20:54:02.871Z,13.00
2018-04-15T20:56:31.143Z,12.90
2018-04-15T20:58:58.621Z,12.90
2018-04-15T21:01:26.138Z,12.80
2018-04-15T21:03:54.381Z,12.70
2018-04-15T21:06:23.046Z,12.70
2018-04-15T21:08:50.585Z,12.70
2018-04-15T21:11:18.081Z,12.60
2018-04-15T21:13:45.569Z,12.60
2018-04-15T21:16:13.060Z,12.90
2018-04-15T21:18:40.565Z,12.90
2018-04-15T21:21:08.040Z,12.90
2018-04-15T21:23:36.293Z,12.70
2018-04-15T21:26:03.793Z,12.70
2018-04-15T21:28:31.281Z,12.60
2018-04-15T21:30:59.548Z,12.60
2018-04-15T21:33:27.860Z,12.50
2018-04-15T21:35:56.125Z,12.40
2018-04-15T21:38:23.658Z,12.40
2018-04-15T21:40:51.855Z,12.30
2018-04-15T21:43:19.379Z,12.30
2018-04-15T21:45:47.612Z,12.10
2018-04-15T21:48:15.108Z,12.10
2018-04-15T21:50:42.597Z,12.00
2018-04-15T21:53:10.098Z,11.90
2018-04-15T21:55:37.600Z,11.90
2018-04-15T21:58:05.076Z,11.90
2018-04-15T22:00:34.048Z,12.00
2018-04-15T22:03:01.625Z,12.00
2018-04-15T22:05:29.127Z,11.90
2018-04-15T22:07:56.597Z,12.00
2018-04-15T22:10:24.131Z,11.90
2018-04-15T22:12:51.608Z,11.80
2018-04-15T22:15:19.097Z,11.70
2018-04-15T22:17:46.593Z,11.60
2018-04-15T22:20:14.068Z,11.50
2018-04-15T22:22:41.581Z,11.40
2018-04-15T22:25:09.064Z,11.40
2018-04-15T22:27:36.577Z,11.40
2018-04-15T22:30:04.065Z,11.30
2018-04-15T22:32:31.537Z,11.30
2018-04-15T22:34:59.811Z,11.20
2018-04-15T22:37:27.299Z,11.20
2018-04-15T22:39:55.572Z,11.10
2018-04-15T22:42:23.050Z,11.10
2018-04-15T22:44:50.664Z,11.10
2018-04-15T22:47:18.152Z,11.10
2018-04-15T22:49:45.636Z,11.00
2018-04-15T22:52:13.141Z,10.90
2018-04-15T22:54:41.378Z,11.00
2018-04-15T22:57:13.782Z,10.90
2018-04-15T22:59:41.253Z,10.90
2018-04-15T23:02:08.747Z,10.90
2018-04-15T23:04:36.242Z,10.80
2018-04-15T23:07:03.736Z,10.80
2018-04-15T23:09:31.218Z,10.80
2018-04-15T23:11:58.736Z,10.70
2018-04-15T23:14:26.216Z,10.70
2018-04-15T23:16:54.461Z,10.70
2018-04-15T23:19:21.969Z,10.60
2018-04-15T23:21:49.449Z,10.70
2018-04-15T23:24:17.717Z,10.50
2018-04-15T23:26:45.204Z,10.50
2018-04-15T23:29:13.490Z,10.30
2018-04-15T23:31:41.737Z,10.30
2018-04-15T23:34:09.226Z,10.30
2018-04-15T23:36:36.739Z,10.30
2018-04-15T23:39:04.246Z,10.30
2018-04-15T23:41:31.748Z,10.20
2018-04-15T23:43:59.272Z,10.20
2018-04-15T23:46:26.780Z,10.30
2018-04-15T23:48:54.256Z,10.30
2018-04-15T23:51:21.732Z,10.20
2018-04-15T23:53:49.264Z,10.20
2018-04-15T23:56:16.740Z,10.10
2018-04-15T23:58:44.249Z,10.10
